Time;durP1;ratioP1;P1;durP2;ratioP2;P2;SDS_P1;SDS_P2;PMS_P1;PMS_P2;Temp;Humidity;BMP_temperature;BMP_pressure;BME280_temperature;BME280_humidity;BME280_pressure;Samples;Min_cycle;Max_cycle;Signal;HPM_P1;HPM_P2
2022/07/06 00:01:40;;;;;;;9.13;4.53;;;21.30;31.60;;;;;;5039117;28;20181;-66
2022/07/06 00:04:06;;;;;;;5.50;4.80;;;21.20;31.60;;;;;;5050985;28;20205;-67
2022/07/06 00:06:32;;;;;;;6.93;5.53;;;21.20;31.40;;;;;;5051096;28;20262;-66
2022/07/06 00:08:58;;;;;;;9.17;6.13;;;21.10;30.80;;;;;;5048732;28;20203;-66
2022/07/06 00:11:24;;;;;;;8.10;5.30;;;21.10;31.50;;;;;;5050042;28;20521;-66
2022/07/06 00:13:50;;;;;;;10.40;4.70;;;21.10;33.20;;;;;;5050249;28;20243;-66
2022/07/06 00:16:16;;;;;;;7.17;5.33;;;21.10;31.30;;;;;;5051417;28;20188;-67
2022/07/06 00:18:42;;;;;;;5.97;5.10;;;21.00;32.40;;;;;;5050612;28;20434;-66
2022/07/06 00:21:07;;;;;;;5.77;4.50;;;20.90;32.60;;;;;;5049890;28;20512;-68
2022/07/06 00:23:33;;;;;;;12.10;5.07;;;20.90;32.30;;;;;;5049088;28;20211;-67
2022/07/06 00:25:59;;;;;;;6.27;4.73;;;21.00;34.20;;;;;;5050634;28;20555;-66
2022/07/06 00:28:24;;;;;;;6.77;4.73;;;21.00;33.30;;;;;;5050729;28;20700;-66
2022/07/06 00:30:50;;;;;;;8.40;5.13;;;20.80;32.70;;;;;;5040906;28;20675;-67
2022/07/06 00:33:16;;;;;;;6.83;4.70;;;20.70;34.30;;;;;;5025243;28;20218;-66
2022/07/06 00:35:41;;;;;;;7.57;4.90;;;20.80;32.50;;;;;;5050850;28;20180;-66
2022/07/06 00:38:07;;;;;;;6.70;4.90;;;20.80;31.50;;;;;;5050014;28;20190;-67
2022/07/06 00:40:33;;;;;;;9.60;5.37;;;20.70;32.80;;;;;;5050259;28;20538;-66
2022/07/06 00:42:58;;;;;;;8.73;5.50;;;20.70;32.90;;;;;;5049600;28;20203;-66
2022/07/06 00:45:24;;;;;;;8.20;5.30;;;20.70;34.90;;;;;;5050967;28;20177;-66
2022/07/06 00:47:50;;;;;;;12.43;5.30;;;20.70;33.10;;;;;;5050914;28;20638;-66
2022/07/06 00:50:20;;;;;;;6.70;5.20;;;20.60;33.20;;;;;;5050593;28;20189;-66
2022/07/06 00:52:48;;;;;;;7.07;4.50;;;20.60;32.50;;;;;;5049703;28;20295;-67
2022/07/06 00:55:16;;;;;;;5.20;4.90;;;20.70;33.90;;;;;;5049363;28;20964;-66
2022/07/06 00:57:42;;;;;;;7.40;5.03;;;20.60;34.10;;;;;;5049801;28;20425;-66
2022/07/06 01:00:10;;;;;;;12.83;5.40;;;20.60;34.50;;;;;;5050479;28;20827;-66
2022/07/06 01:02:37;;;;;;;11.60;5.57;;;20.60;34.40;;;;;;5049682;28;20547;-66
2022/07/06 01:05:07;;;;;;;6.77;5.10;;;20.50;32.80;;;;;;5049383;28;21067;-68
2022/07/06 01:07:34;;;;;;;10.13;5.17;;;20.50;33.70;;;;;;5051033;28;20461;-67
2022/07/06 01:09:59;;;;;;;12.40;5.00;;;20.30;34.50;;;;;;5053564;28;20440;-66
2022/07/06 01:12:25;;;;;;;5.40;4.93;;;20.40;33.10;;;;;;5054328;28;20436;-66
2022/07/06 01:14:51;;;;;;;9.27;5.20;;;20.50;34.30;;;;;;5053025;28;20199;-67
2022/07/06 01:17:17;;;;;;;6.00;5.10;;;20.30;34.20;;;;;;5054487;28;20221;-67
2022/07/06 01:19:43;;;;;;;8.90;5.93;;;20.20;34.50;;;;;;5054258;28;20241;-67
2022/07/06 01:22:10;;;;;;;9.60;5.20;;;20.30;33.50;;;;;;5053111;28;20446;-66
2022/07/06 01:24:36;;;;;;;9.03;4.97;;;20.50;34.60;;;;;;5054000;28;20424;-66
2022/07/06 01:27:04;;;;;;;7.30;5.00;;;20.40;34.10;;;;;;5054462;28;20523;-66
2022/07/06 01:29:30;;;;;;;6.20;5.20;;;20.40;34.60;;;;;;5054469;28;20411;-66
2022/07/06 01:31:55;;;;;;;12.77;5.77;;;20.30;33.90;;;;;;5052927;28;20879;-66
2022/07/06 01:34:21;;;;;;;8.07;6.00;;;20.20;34.70;;;;;;5053923;28;20209;-67
2022/07/06 01:36:47;;;;;;;7.43;5.43;;;20.20;34.20;;;;;;5053185;28;20242;-66
2022/07/06 01:39:13;;;;;;;9.13;5.47;;;20.30;34.10;;;;;;5053922;28;20773;-66
2022/07/06 01:41:39;;;;;;;7.13;5.63;;;20.20;34.30;;;;;;5053375;28;20178;-66
2022/07/06 01:44:05;;;;;;;8.73;5.27;;;20.10;34.40;;;;;;5052796;28;20452;-66
2022/07/06 01:46:31;;;;;;;7.30;5.87;;;20.10;34.00;;;;;;5053915;28;20930;-66
2022/07/06 01:48:57;;;;;;;10.23;6.30;;;20.10;35.90;;;;;;5052883;28;20434;-68
2022/07/06 01:51:24;;;;;;;8.50;5.60;;;20.10;35.90;;;;;;5053460;28;20678;-68
2022/07/06 01:53:50;;;;;;;7.13;5.77;;;20.00;34.50;;;;;;5052677;28;20475;-68
2022/07/06 01:56:18;;;;;;;6.67;5.60;;;20.00;35.00;;;;;;5053651;28;20474;-68
2022/07/06 01:58:44;;;;;;;10.70;5.20;;;20.00;35.80;;;;;;5034090;28;20784;-72
2022/07/06 02:01:12;;;;;;;6.43;5.33;;;19.90;34.80;;;;;;5053327;28;20446;-67
2022/07/06 02:03:38;;;;;;;6.80;5.50;;;20.20;34.30;;;;;;5053172;28;20459;-68
2022/07/06 02:06:05;;;;;;;8.40;6.00;;;20.10;34.60;;;;;;5053753;28;20422;-68
2022/07/06 02:08:31;;;;;;;11.63;6.20;;;20.00;34.90;;;;;;5053796;28;20412;-68
2022/07/06 02:10:57;;;;;;;7.67;6.10;;;19.90;35.10;;;;;;5051995;28;20835;-68
2022/07/06 02:13:23;;;;;;;6.80;6.30;;;19.90;35.90;;;;;;5050940;28;20518;-68
2022/07/06 02:15:48;;;;;;;7.50;6.03;;;19.90;35.10;;;;;;5053600;28;20187;-68
2022/07/06 02:18:14;;;;;;;10.20;6.20;;;19.90;35.10;;;;;;5053013;28;20186;-68
2022/07/06 02:20:40;;;;;;;9.97;5.70;;;19.90;36.20;;;;;;5053220;28;20248;-68
2022/07/06 02:23:05;;;;;;;11.10;6.17;;;19.90;35.10;;;;;;5051615;28;20585;-66
2022/07/06 02:25:31;;;;;;;8.93;6.47;;;19.90;36.20;;;;;;5052237;28;20664;-68
2022/07/06 02:27:57;;;;;;;7.73;6.43;;;19.90;35.90;;;;;;5053064;28;20284;-68
2022/07/06 02:30:22;;;;;;;10.30;6.00;;;20.10;35.00;;;;;;5053209;28;20181;-68
2022/07/06 02:32:48;;;;;;;7.97;6.13;;;20.10;34.70;;;;;;5052643;28;20239;-67
2022/07/06 02:35:14;;;;;;;13.97;7.27;;;20.00;34.70;;;;;;5051738;28;20209;-68
2022/07/06 02:37:40;;;;;;;13.63;6.87;;;19.90;35.70;;;;;;5052293;28;20183;-68
2022/07/06 02:40:06;;;;;;;11.43;6.90;;;19.90;35.10;;;;;;5053140;28;20177;-68
2022/07/06 02:42:32;;;;;;;11.23;7.00;;;19.90;35.50;;;;;;5051149;28;20447;-68
2022/07/06 02:44:57;;;;;;;9.20;7.07;;;19.80;36.50;;;;;;5051039;28;20509;-68
2022/07/06 02:47:23;;;;;;;8.87;6.77;;;19.60;36.30;;;;;;5052672;28;20636;-68
2022/07/06 02:49:49;;;;;;;9.20;6.87;;;19.50;35.80;;;;;;5052750;28;20169;-68
2022/07/06 02:52:14;;;;;;;8.40;6.80;;;19.60;36.10;;;;;;5052593;28;20180;-68
2022/07/06 02:54:40;;;;;;;9.53;7.13;;;19.60;37.20;;;;;;5052069;28;20628;-68
2022/07/06 02:57:05;;;;;;;11.63;6.50;;;19.50;37.00;;;;;;5051612;28;20178;-68
2022/07/06 02:59:31;;;;;;;12.27;6.57;;;19.50;36.50;;;;;;5051321;28;20208;-67
2022/07/06 03:01:57;;;;;;;10.93;6.67;;;19.40;37.70;;;;;;5052293;28;20636;-68
2022/07/06 03:04:22;;;;;;;10.70;7.53;;;19.50;37.20;;;;;;5051997;28;20208;-68
2022/07/06 03:06:48;;;;;;;12.47;7.00;;;19.40;37.40;;;;;;5052514;28;20298;-66
2022/07/06 03:09:14;;;;;;;7.40;6.40;;;19.40;37.80;;;;;;5051352;28;20247;-68
2022/07/06 03:11:40;;;;;;;11.53;7.00;;;19.20;37.40;;;;;;5051734;28;20201;-68
2022/07/06 03:14:06;;;;;;;10.90;6.93;;;19.20;38.90;;;;;;5051990;28;20490;-67
2022/07/06 03:16:32;;;;;;;10.13;7.50;;;19.20;37.80;;;;;;5051409;28;20686;-67
2022/07/06 03:18:58;;;;;;;8.20;7.07;;;19.40;37.20;;;;;;5051191;28;20172;-68
2022/07/06 03:21:24;;;;;;;11.33;7.50;;;19.40;37.10;;;;;;5050070;28;20854;-68
2022/07/06 03:23:50;;;;;;;10.43;7.97;;;19.40;38.20;;;;;;5050982;28;20465;-67
2022/07/06 03:26:15;;;;;;;8.50;7.27;;;19.30;37.20;;;;;;5051853;28;20437;-68
2022/07/06 03:28:41;;;;;;;10.10;7.40;;;19.40;37.10;;;;;;5051092;28;20233;-68
2022/07/06 03:31:07;;;;;;;14.20;6.97;;;19.30;37.20;;;;;;5049990;28;20651;-68
2022/07/06 03:33:32;;;;;;;9.37;7.30;;;19.20;36.70;;;;;;5050751;28;20304;-68
2022/07/06 03:35:58;;;;;;;11.00;7.20;;;19.20;37.60;;;;;;5048831;28;20825;-66
2022/07/06 03:38:23;;;;;;;11.93;7.90;;;19.20;37.00;;;;;;5033965;28;20171;-68
2022/07/06 03:40:49;;;;;;;8.90;7.50;;;19.20;37.30;;;;;;5050682;28;20194;-68
2022/07/06 03:43:15;;;;;;;9.10;7.60;;;19.20;38.60;;;;;;5050015;28;20710;-68
2022/07/06 03:45:40;;;;;;;11.60;7.40;;;19.10;38.60;;;;;;5050105;28;20302;-68
2022/07/06 03:48:06;;;;;;;14.70;8.20;;;19.20;37.70;;;;;;5049041;28;20172;-68
2022/07/06 03:50:32;;;;;;;12.67;7.40;;;19.20;39.00;;;;;;5050932;28;20195;-68
2022/07/06 03:52:57;;;;;;;11.40;7.77;;;19.10;38.50;;;;;;5051409;28;20216;-68
2022/07/06 03:55:23;;;;;;;11.17;7.10;;;19.10;40.00;;;;;;5051273;28;20212;-68
2022/07/06 03:57:48;;;;;;;15.80;7.10;;;18.90;39.70;;;;;;5050165;28;20176;-67
2022/07/06 04:00:14;;;;;;;9.93;7.87;;;18.90;38.90;;;;;;5049884;28;20586;-68
2022/07/06 04:02:40;;;;;;;13.50;8.00;;;19.10;39.00;;;;;;5051225;28;20283;-68
2022/07/06 04:05:06;;;;;;;9.17;7.37;;;19.10;38.60;;;;;;5046314;28;20453;-68
2022/07/06 04:07:32;;;;;;;9.90;7.17;;;19.20;38.50;;;;;;5051837;28;20429;-68
2022/07/06 04:09:58;;;;;;;9.73;7.40;;;19.20;38.20;;;;;;5050711;28;20433;-68
2022/07/06 04:12:23;;;;;;;10.90;8.10;;;19.20;37.90;;;;;;5051529;28;20238;-68
2022/07/06 04:14:49;;;;;;;9.73;7.40;;;19.20;39.80;;;;;;5032654;28;20200;-68
2022/07/06 04:19:58;;;;;;;10.97;7.53;;;19.40;38.10;;;;;;5046752;28;20192;-68
2022/07/06 04:22:24;;;;;;;11.17;7.93;;;19.50;37.80;;;;;;5046593;28;20435;-68
2022/07/06 04:24:50;;;;;;;9.87;7.50;;;19.50;38.20;;;;;;5051128;28;20262;-68
2022/07/06 04:27:15;;;;;;;11.10;7.70;;;19.60;37.80;;;;;;5050865;28;20172;-67
2022/07/06 04:29:41;;;;;;;9.80;7.33;;;19.60;38.20;;;;;;5050559;28;20251;-68
2022/07/06 04:32:07;;;;;;;8.83;7.10;;;19.50;39.00;;;;;;5047742;28;20191;-68
2022/07/06 04:34:33;;;;;;;9.67;7.60;;;19.60;39.30;;;;;;5050803;28;20229;-69
2022/07/06 04:36:58;;;;;;;13.73;7.43;;;19.60;38.20;;;;;;5049487;28;20434;-70
2022/07/06 04:39:24;;;;;;;13.60;8.00;;;19.70;39.30;;;;;;5049316;28;20718;-69
2022/07/06 04:41:50;;;;;;;10.43;7.87;;;19.70;38.80;;;;;;5048346;28;20271;-69
2022/07/06 04:44:15;;;;;;;10.87;8.30;;;19.80;38.70;;;;;;5050695;28;20673;-70
2022/07/06 04:46:41;;;;;;;13.00;7.30;;;19.80;39.10;;;;;;5050809;28;20180;-70
2022/07/06 04:49:06;;;;;;;11.90;7.57;;;19.80;37.30;;;;;;5050094;28;20178;-70
2022/07/06 04:51:32;;;;;;;9.80;7.60;;;20.00;37.60;;;;;;5048813;28;20628;-69
2022/07/06 04:53:58;;;;;;;11.70;8.03;;;19.90;38.10;;;;;;5048993;28;20222;-70
2022/07/06 04:56:24;;;;;;;11.63;7.30;;;19.90;37.10;;;;;;5049308;28;20181;-69
2022/07/06 04:58:49;;;;;;;10.57;8.00;;;20.30;37.00;;;;;;5047495;28;20241;-70
2022/07/06 05:01:15;;;;;;;14.83;8.00;;;20.20;36.70;;;;;;5048602;28;20192;-70
2022/07/06 05:03:41;;;;;;;10.60;7.70;;;20.30;36.90;;;;;;5047535;28;20250;-69
2022/07/06 05:06:07;;;;;;;13.10;9.47;;;20.30;36.20;;;;;;5046921;28;20182;-68
2022/07/06 05:08:33;;;;;;;13.03;9.93;;;20.30;37.50;;;;;;5046929;28;20188;-69
2022/07/06 05:10:59;;;;;;;22.80;12.13;;;20.30;37.00;;;;;;5045551;28;20448;-69
2022/07/06 05:13:25;;;;;;;33.87;18.50;;;20.40;36.90;;;;;;5049160;28;20548;-68
2022/07/06 05:15:51;;;;;;;19.30;14.80;;;20.00;35.20;;;;;;5049603;28;20524;-68
2022/07/06 05:18:16;;;;;;;22.60;15.87;;;19.30;36.90;;;;;;5049087;28;20198;-69
2022/07/06 05:20:42;;;;;;;33.17;16.30;;;19.10;38.10;;;;;;5047941;28;20199;-69
2022/07/06 05:23:08;;;;;;;20.83;13.00;;;19.00;38.70;;;;;;5050099;28;20743;-69
2022/07/06 05:25:34;;;;;;;22.93;10.00;;;19.20;36.80;;;;;;5049553;28;20430;-69
2022/07/06 05:28:00;;;;;;;14.23;8.00;;;19.20;36.30;;;;;;5046434;28;20246;-69
2022/07/06 05:30:26;;;;;;;11.53;7.33;;;19.30;35.80;;;;;;5046767;28;20186;-69
2022/07/06 05:32:51;;;;;;;10.20;7.70;;;19.50;37.10;;;;;;5044964;28;20561;-70
2022/07/06 05:35:18;;;;;;;16.93;9.20;;;19.60;36.20;;;;;;5045063;28;21054;-69
2022/07/06 05:37:43;;;;;;;22.70;9.10;;;19.70;34.30;;;;;;5046582;28;20669;-69
2022/07/06 05:40:09;;;;;;;18.10;8.40;;;19.60;35.20;;;;;;5046745;28;20450;-69
2022/07/06 05:42:35;;;;;;;9.93;7.63;;;19.20;36.30;;;;;;5045727;28;20214;-70
2022/07/06 05:45:03;;;;;;;11.70;7.83;;;18.90;35.80;;;;;;5046034;28;20448;-70
2022/07/06 05:50:12;;;;;;;11.07;7.97;;;19.30;35.50;;;;;;5046351;28;20443;-69
2022/07/06 05:52:44;;;;;;;14.90;8.63;;;19.50;34.90;;;;;;5029023;28;20475;-69
2022/07/06 05:55:11;;;;;;;19.00;7.93;;;19.70;33.90;;;;;;5047768;28;20212;-69
2022/07/06 05:57:38;;;;;;;10.10;8.37;;;19.40;34.20;;;;;;5050514;28;20918;-70
2022/07/06 06:00:05;;;;;;;15.00;8.17;;;19.30;34.70;;;;;;5049668;28;20460;-69
2022/07/06 06:02:38;;;;;;;21.60;7.30;;;19.90;35.90;;;;;;5049564;28;20600;-69
2022/07/06 06:05:06;;;;;;;19.20;7.37;;;19.90;34.10;;;;;;5052013;28;20816;-68
2022/07/06 06:07:34;;;;;;;12.73;7.33;;;19.90;34.00;;;;;;5053355;28;20494;-67
2022/07/06 06:09:59;;;;;;;11.50;7.03;;;19.80;34.60;;;;;;5053282;28;20430;-69
2022/07/06 06:12:25;;;;;;;13.80;7.80;;;19.70;35.00;;;;;;5035073;28;20433;-69
2022/07/06 06:14:51;;;;;;;10.90;7.57;;;20.00;34.10;;;;;;5051136;28;20198;-69
2022/07/06 06:17:16;;;;;;;18.10;8.00;;;19.60;34.10;;;;;;5052612;28;21016;-69
2022/07/06 06:19:42;;;;;;;17.03;8.73;;;19.70;34.40;;;;;;5052625;28;20321;-70
2022/07/06 06:22:07;;;;;;;16.13;8.73;;;19.70;34.10;;;;;;5048967;28;20303;-69
2022/07/06 06:24:33;;;;;;;14.20;9.67;;;19.20;35.20;;;;;;5050501;28;20752;-69
2022/07/06 06:26:59;;;;;;;18.77;9.40;;;19.40;34.60;;;;;;5046971;28;20269;-69
2022/07/06 06:29:24;;;;;;;11.93;8.53;;;19.00;35.60;;;;;;5050772;28;20306;-68
2022/07/06 06:31:50;;;;;;;13.13;8.80;;;19.50;35.10;;;;;;5048034;28;20275;-70
2022/07/06 06:34:16;;;;;;;27.47;9.27;;;20.20;35.40;;;;;;5049330;28;20362;-70
2022/07/06 06:36:41;;;;;;;21.27;8.87;;;20.40;33.00;;;;;;5050423;28;20181;-69
2022/07/06 06:39:07;;;;;;;13.83;7.87;;;20.70;33.00;;;;;;5047986;28;20188;-69
2022/07/06 06:41:33;;;;;;;15.67;8.00;;;21.10;33.70;;;;;;5043627;28;20181;-70
2022/07/06 06:43:58;;;;;;;10.00;7.63;;;21.20;32.00;;;;;;5048570;28;20220;-69
2022/07/06 06:46:24;;;;;;;19.20;8.67;;;20.30;33.00;;;;;;5047704;28;20188;-70
2022/07/06 06:48:49;;;;;;;21.57;8.20;;;20.30;33.10;;;;;;5048798;28;20184;-69
2022/07/06 06:51:15;;;;;;;11.00;7.83;;;20.20;34.70;;;;;;5050525;28;20314;-67
2022/07/06 06:53:40;;;;;;;18.17;8.07;;;19.90;34.20;;;;;;5049350;28;20217;-70
2022/07/06 06:56:07;;;;;;;12.53;7.60;;;20.00;34.90;;;;;;5049954;28;20185;-70
2022/07/06 06:58:32;;;;;;;8.63;7.27;;;20.70;34.90;;;;;;5047781;28;20191;-70
2022/07/06 07:00:58;;;;;;;10.60;7.40;;;20.80;32.10;;;;;;5049108;28;20836;-70
2022/07/06 07:03:23;;;;;;;11.03;7.77;;;20.50;33.00;;;;;;5051529;28;20205;-69
2022/07/06 07:05:49;;;;;;;11.23;7.03;;;20.00;34.60;;;;;;5050809;28;20621;-70
2022/07/06 07:08:15;;;;;;;13.00;6.90;;;20.30;34.80;;;;;;5051231;28;20175;-69
2022/07/06 07:10:40;;;;;;;11.70;8.30;;;21.10;35.80;;;;;;5032192;28;20210;-70
2022/07/06 07:13:06;;;;;;;17.73;8.07;;;21.10;32.20;;;;;;5031907;28;20211;-69
2022/07/06 07:15:32;;;;;;;16.87;6.87;;;20.80;32.30;;;;;;5032342;28;20686;-69
2022/07/06 07:17:57;;;;;;;15.40;7.90;;;20.30;34.30;;;;;;5032361;28;20169;-69
2022/07/06 07:20:23;;;;;;;11.77;7.30;;;21.00;33.20;;;;;;5046934;28;20478;-69
2022/07/06 07:22:49;;;;;;;11.00;7.43;;;21.70;32.80;;;;;;5051738;28;20269;-69
2022/07/06 07:25:14;;;;;;;16.60;7.87;;;22.20;31.20;;;;;;5052110;28;20178;-70
2022/07/06 07:27:40;;;;;;;16.63;7.90;;;22.20;29.40;;;;;;5052286;28;20674;-69
2022/07/06 07:30:06;;;;;;;20.73;7.53;;;21.10;32.00;;;;;;5033384;28;20179;-69
2022/07/06 07:32:32;;;;;;;13.87;7.50;;;21.40;30.30;;;;;;5051608;28;20207;-70
2022/07/06 07:34:57;;;;;;;11.20;7.63;;;21.80;31.50;;;;;;5033731;28;20661;-69
2022/07/06 07:37:23;;;;;;;11.23;7.67;;;21.40;30.60;;;;;;5052018;28;20179;-69
2022/07/06 07:39:49;;;;;;;10.43;7.27;;;21.10;31.90;;;;;;5051904;28;20660;-69
2022/07/06 07:42:14;;;;;;;9.40;7.33;;;20.80;32.80;;;;;;5050364;28;20179;-70
2022/07/06 07:44:40;;;;;;;9.50;7.27;;;21.20;32.30;;;;;;5051682;28;20186;-69
2022/07/06 07:47:06;;;;;;;15.03;7.80;;;20.80;32.30;;;;;;5051764;28;20173;-69
2022/07/06 07:49:32;;;;;;;15.13;7.37;;;20.80;32.50;;;;;;5041896;28;20453;-70
2022/07/06 07:51:58;;;;;;;19.00;8.53;;;21.00;32.30;;;;;;5031446;28;20199;-69
2022/07/06 07:54:23;;;;;;;14.43;7.40;;;20.50;32.80;;;;;;5033875;28;20264;-69
2022/07/06 07:56:49;;;;;;;8.97;6.80;;;20.70;33.60;;;;;;5031683;28;20179;-69
2022/07/06 07:59:14;;;;;;;12.93;8.00;;;21.50;31.70;;;;;;5031750;28;20175;-69
2022/07/06 08:01:40;;;;;;;14.03;7.83;;;20.90;32.70;;;;;;5031174;28;20167;-69
2022/07/06 08:04:06;;;;;;;12.40;7.57;;;20.60;33.40;;;;;;5035645;28;20601;-69
2022/07/06 08:06:32;;;;;;;9.73;7.23;;;20.50;33.70;;;;;;5051602;28;20622;-70
2022/07/06 08:08:58;;;;;;;12.97;8.27;;;20.60;33.90;;;;;;5051418;28;20971;-69
2022/07/06 08:11:23;;;;;;;12.77;7.87;;;21.20;32.40;;;;;;5051127;28;20415;-69
2022/07/06 08:13:49;;;;;;;12.30;7.93;;;21.10;31.80;;;;;;5050141;28;20689;-69
2022/07/06 08:16:15;;;;;;;9.67;6.80;;;21.20;32.30;;;;;;5050892;28;20187;-70
2022/07/06 08:18:40;;;;;;;14.00;7.70;;;21.50;31.40;;;;;;5051099;28;20180;-69
2022/07/06 08:21:06;;;;;;;13.03;7.27;;;21.60;30.70;;;;;;5050985;28;20686;-69
2022/07/06 08:23:34;;;;;;;12.40;7.57;;;21.20;31.80;;;;;;5050293;28;20195;-69
2022/07/06 08:26:01;;;;;;;8.77;7.00;;;21.20;31.90;;;;;;5051149;28;20169;-70
2022/07/06 08:28:27;;;;;;;15.10;7.70;;;21.70;31.20;;;;;;5050917;28;20463;-70
2022/07/06 08:30:54;;;;;;;15.00;7.63;;;21.90;30.20;;;;;;5032885;28;20427;-70
2022/07/06 08:33:20;;;;;;;14.17;7.47;;;22.50;30.40;;;;;;5049831;28;20447;-70
2022/07/06 08:35:45;;;;;;;14.10;7.27;;;22.50;30.00;;;;;;5050721;28;20408;-70
2022/07/06 08:38:11;;;;;;;11.13;7.73;;;22.80;28.90;;;;;;5051110;28;20216;-69
2022/07/06 08:40:39;;;;;;;10.37;7.27;;;21.90;29.70;;;;;;5051040;28;20177;-69
2022/07/06 08:43:05;;;;;;;10.93;8.00;;;22.10;29.80;;;;;;5050107;28;20214;-67
2022/07/06 08:45:34;;;;;;;10.27;7.03;;;22.20;30.10;;;;;;5050048;28;20432;-70
2022/07/06 08:48:04;;;;;;;11.43;7.10;;;22.90;29.10;;;;;;5051054;28;20184;-70
2022/07/06 08:50:30;;;;;;;11.83;7.93;;;22.60;30.00;;;;;;5049103;28;20433;-70
2022/07/06 08:52:55;;;;;;;10.60;7.13;;;22.90;29.70;;;;;;5050192;28;20526;-69
2022/07/06 08:55:21;;;;;;;16.63;7.50;;;22.50;29.80;;;;;;5048800;28;20206;-70
2022/07/06 08:57:47;;;;;;;10.57;7.43;;;22.40;29.30;;;;;;5050313;28;20175;-70
2022/07/06 09:00:14;;;;;;;16.40;7.00;;;22.30;28.80;;;;;;5046966;28;20229;-69
2022/07/06 09:02:41;;;;;;;14.27;7.57;;;22.80;28.80;;;;;;5050127;28;20210;-70
2022/07/06 09:05:08;;;;;;;10.23;7.50;;;22.70;29.00;;;;;;5050732;28;20489;-70
2022/07/06 09:07:34;;;;;;;15.87;6.80;;;22.30;29.20;;;;;;5063358;28;20444;-69
2022/07/06 09:10:01;;;;;;;12.00;7.07;;;22.80;29.40;;;;;;5045330;28;20439;-70
2022/07/06 09:12:28;;;;;;;12.43;7.20;;;22.50;28.20;;;;;;5046626;28;20206;-72
2022/07/06 09:14:57;;;;;;;8.63;6.87;;;22.30;30.00;;;;;;5047679;28;20474;-70
2022/07/06 09:17:28;;;;;;;16.53;7.10;;;23.00;29.30;;;;;;5039362;28;21115;-70
2022/07/06 09:19:54;;;;;;;10.40;6.80;;;23.60;28.60;;;;;;5049062;28;20956;-69
2022/07/06 09:22:27;;;;;;;14.50;7.50;;;24.40;26.80;;;;;;5049580;28;20511;-67
2022/07/06 09:25:00;;;;;;;10.80;6.50;;;24.40;26.80;;;;;;5050327;28;20975;-67
2022/07/06 09:27:26;;;;;;;12.33;6.67;;;24.10;28.00;;;;;;5063326;28;20409;-67
2022/07/06 09:29:51;;;;;;;19.23;6.80;;;24.70;27.60;;;;;;5073138;28;20903;-66
2022/07/06 09:32:21;;;;;;;13.00;6.73;;;24.80;26.30;;;;;;5048349;28;20194;-67
2022/07/06 09:34:47;;;;;;;14.90;6.67;;;25.20;25.70;;;;;;5041442;28;20679;-68
2022/07/06 09:37:13;;;;;;;11.73;5.90;;;25.10;26.10;;;;;;5052315;28;20567;-68
2022/07/06 09:39:40;;;;;;;14.97;6.70;;;25.40;25.00;;;;;;5052135;28;20670;-69
2022/07/06 09:42:08;;;;;;;9.33;6.07;;;25.60;24.80;;;;;;5051766;28;20527;-69
2022/07/06 09:44:38;;;;;;;11.63;6.47;;;25.90;25.10;;;;;;5049608;28;20562;-69
2022/07/06 09:47:09;;;;;;;10.27;6.20;;;26.20;23.20;;;;;;5051652;28;20465;-68
2022/07/06 09:49:38;;;;;;;18.03;6.93;;;26.20;23.50;;;;;;5048690;28;20438;-69
2022/07/06 09:52:10;;;;;;;14.00;6.67;;;25.10;24.40;;;;;;5049149;28;20438;-67
2022/07/06 09:54:38;;;;;;;22.00;7.00;;;24.40;26.20;;;;;;5043867;28;20885;-68
2022/07/06 09:57:05;;;;;;;12.63;5.77;;;24.40;26.80;;;;;;5033625;28;20438;-68
2022/07/06 09:59:32;;;;;;;8.57;5.30;;;24.80;24.70;;;;;;5051302;28;20425;-68
2022/07/06 10:02:00;;;;;;;8.60;5.37;;;23.80;25.30;;;;;;5049880;28;20479;-68
2022/07/06 10:04:27;;;;;;;9.30;5.53;;;23.60;25.60;;;;;;5049108;28;20445;-68
2022/07/06 10:06:54;;;;;;;6.17;4.90;;;24.10;26.00;;;;;;5047164;28;20480;-67
2022/07/06 10:09:22;;;;;;;11.67;5.63;;;23.80;26.00;;;;;;5049504;28;20426;-68
2022/07/06 10:11:54;;;;;;;10.03;5.70;;;24.30;25.80;;;;;;5050244;28;20445;-69
2022/07/06 10:14:22;;;;;;;9.23;5.83;;;25.20;23.90;;;;;;5049219;28;20527;-69
2022/07/06 10:16:48;;;;;;;10.70;5.90;;;25.70;24.00;;;;;;5049231;28;20785;-69
2022/07/06 10:19:16;;;;;;;11.80;5.40;;;26.00;22.20;;;;;;5052574;28;20441;-69
2022/07/06 10:21:41;;;;;;;8.20;5.73;;;25.10;24.10;;;;;;5050134;28;20434;-69
2022/07/06 10:24:09;;;;;;;8.00;5.53;;;24.70;24.10;;;;;;5049597;28;20480;-67
2022/07/06 10:26:36;;;;;;;8.70;5.77;;;24.30;25.40;;;;;;5049901;28;20201;-69
2022/07/06 10:29:06;;;;;;;14.00;5.57;;;25.00;25.10;;;;;;5050382;28;20438;-69
2022/07/06 10:31:35;;;;;;;6.57;5.60;;;26.00;23.30;;;;;;5049874;28;20863;-69
2022/07/06 10:34:04;;;;;;;10.53;5.30;;;26.60;22.00;;;;;;5050604;28;20564;-69
2022/07/06 10:36:30;;;;;;;16.70;5.93;;;26.50;23.20;;;;;;5043424;28;20917;-69
2022/07/06 10:38:57;;;;;;;6.87;5.07;;;26.80;22.10;;;;;;5051073;28;20437;-68
2022/07/06 10:41:33;;;;;;;13.23;5.07;;;26.40;22.20;;;;;;5048943;28;20192;-69
2022/07/06 10:44:15;;;;;;;8.43;5.27;;;25.60;23.80;;;;;;5051893;28;20445;-69
2022/07/06 10:46:49;;;;;;;9.53;5.00;;;25.50;23.00;;;;;;5051635;28;20436;-68
2022/07/06 10:49:18;;;;;;;6.90;5.20;;;24.90;23.90;;;;;;5048625;28;20430;-69
2022/07/06 10:51:43;;;;;;;10.87;5.30;;;25.30;23.20;;;;;;5048557;28;20455;-66
2022/07/06 10:54:09;;;;;;;11.07;5.70;;;24.80;24.30;;;;;;5048846;28;20575;-67
2022/07/06 10:56:39;;;;;;;8.20;5.33;;;25.30;23.50;;;;;;5050254;28;21979;-69
2022/07/06 10:59:13;;;;;;;8.77;5.40;;;24.60;24.40;;;;;;5050129;28;20882;-69
2022/07/06 11:01:39;;;;;;;16.57;4.87;;;24.50;23.70;;;;;;5049749;28;20430;-69
2022/07/06 11:04:07;;;;;;;18.83;4.93;;;25.40;24.40;;;;;;5046117;28;20472;-68
2022/07/06 11:06:36;;;;;;;5.57;4.87;;;26.40;24.70;;;;;;5050186;28;20441;-69
2022/07/06 11:09:03;;;;;;;9.77;5.20;;;27.00;23.30;;;;;;5049406;28;20515;-68
2022/07/06 11:11:35;;;;;;;5.00;4.70;;;26.50;21.10;;;;;;5047125;28;20475;-69
2022/07/06 11:14:02;;;;;;;7.33;5.47;;;26.50;23.80;;;;;;5047591;28;20892;-69
2022/07/06 11:16:33;;;;;;;5.97;5.00;;;26.30;21.70;;;;;;5049563;28;20475;-68
2022/07/06 11:19:20;;;;;;;8.67;5.00;;;25.50;23.00;;;;;;5048097;28;20438;-67
2022/07/06 11:21:51;;;;;;;7.63;4.90;;;25.10;23.80;;;;;;5048111;28;20785;-69
2022/07/06 11:24:20;;;;;;;9.27;5.80;;;25.40;23.00;;;;;;5048622;28;20988;-66
2022/07/06 11:26:48;;;;;;;6.40;5.10;;;25.70;22.30;;;;;;5047745;28;20781;-68
2022/07/06 11:29:17;;;;;;;8.53;4.90;;;25.70;22.80;;;;;;5047740;28;20434;-68
2022/07/06 11:31:45;;;;;;;12.60;5.20;;;26.50;22.90;;;;;;5043201;28;20434;-68
2022/07/06 11:34:14;;;;;;;10.10;5.37;;;26.80;22.90;;;;;;5047878;28;21255;-68
2022/07/06 11:36:40;;;;;;;10.80;4.70;;;27.20;22.10;;;;;;5047750;28;20941;-69
2022/07/06 11:39:06;;;;;;;8.90;4.30;;;27.60;21.50;;;;;;5049328;28;20429;-69
2022/07/06 11:41:32;;;;;;;8.27;4.87;;;28.80;21.30;;;;;;5048202;28;20937;-69
2022/07/06 11:43:58;;;;;;;13.93;4.63;;;29.60;20.00;;;;;;5049121;28;20496;-69
2022/07/06 11:46:28;;;;;;;7.00;5.10;;;28.90;18.20;;;;;;5048578;28;20437;-69
2022/07/06 11:48:59;;;;;;;13.23;5.13;;;27.50;20.60;;;;;;5050387;28;20188;-68
2022/07/06 11:51:26;;;;;;;10.17;4.70;;;27.40;20.70;;;;;;5046892;28;20455;-69
2022/07/06 11:53:54;;;;;;;10.63;5.30;;;27.00;22.80;;;;;;5050389;28;20504;-69
2022/07/06 11:56:26;;;;;;;14.13;5.13;;;27.10;22.90;;;;;;5048647;28;20925;-69
2022/07/06 11:58:54;;;;;;;5.43;4.83;;;27.40;20.70;;;;;;5049845;28;20430;-69
2022/07/06 12:01:22;;;;;;;10.23;4.90;;;27.60;21.80;;;;;;5050306;28;20796;-70
2022/07/06 12:03:48;;;;;;;7.13;5.10;;;27.60;22.70;;;;;;5049333;28;21335;-68
2022/07/06 12:06:20;;;;;;;7.43;5.30;;;27.30;22.30;;;;;;5050005;28;20434;-69
2022/07/06 12:08:51;;;;;;;8.03;5.17;;;27.10;20.60;;;;;;5046196;28;20594;-69
2022/07/06 12:11:23;;;;;;;8.60;5.10;;;26.60;20.60;;;;;;5050080;28;21405;-70
2022/07/06 12:13:57;;;;;;;12.20;5.40;;;26.20;22.60;;;;;;5048206;28;20472;-70
2022/07/06 12:16:30;;;;;;;10.50;4.93;;;26.00;22.50;;;;;;5045042;28;20430;-70
2022/07/06 12:18:56;;;;;;;9.43;5.17;;;26.20;24.40;;;;;;5047579;28;20434;-69
2022/07/06 12:21:22;;;;;;;7.90;5.77;;;26.90;24.10;;;;;;5048863;28;20844;-70
2022/07/06 12:23:50;;;;;;;10.27;5.00;;;27.40;21.90;;;;;;5048753;28;20960;-69
2022/07/06 12:26:18;;;;;;;9.53;5.03;;;28.40;20.30;;;;;;5048373;28;20175;-71
2022/07/06 12:28:44;;;;;;;12.77;5.43;;;29.10;20.60;;;;;;5047571;28;20442;-69
2022/07/06 12:31:10;;;;;;;9.60;4.70;;;28.90;19.70;;;;;;5046367;28;20850;-70
2022/07/06 12:33:36;;;;;;;11.90;4.60;;;28.50;20.10;;;;;;5048400;28;20461;-70
2022/07/06 12:36:10;;;;;;;17.13;5.43;;;27.90;19.60;;;;;;5046717;28;20964;-69
2022/07/06 12:38:35;;;;;;;5.30;4.40;;;26.80;21.10;;;;;;5041960;28;20492;-69
2022/07/06 12:41:02;;;;;;;5.73;4.73;;;26.80;22.70;;;;;;5046006;28;20560;-69
2022/07/06 12:43:39;;;;;;;10.47;4.97;;;26.20;22.90;;;;;;5047016;28;20224;-69